DAL3021 KPNS-KCHS
Flight info
| Callsign | DAL3021 |
|---|---|
| Flight time | 1h 7m |
| Altitude | 39000 |
| Route | DCT CEW DCT WYATT DCT TEUFL DCT SAV BAGGY3 |
| Aircraft | B738/M-SDE2E3FGHIRWXY/LB1 |
Departure
| Time | 2026-04-27 22:37 |
|---|---|
| Airport | Pensacola International Airport (KPNS) |
Arrival
| Time | 2026-04-27 23:44 |
|---|---|
| Airport | Charleston International Airport (KCHS) |
| Time | Latitude | Longitude | Altitude | Speed | Heading |
|---|---|---|---|---|---|
| 2026-04-27 22:12 | 30.47604 | -87.19272 | 104 ft | 0 kts | 201° |
| 2026-04-27 22:25 | 30.47619 | -87.19271 | 110 ft | 3 kts | 148° |
| 2026-04-27 22:25 | 30.47629 | -87.19287 | 110 ft | 2 kts | 85° |
| 2026-04-27 22:25 | 30.47622 | -87.19305 | 110 ft | 3 kts | 42° |
| 2026-04-27 22:26 | 30.47617 | -87.19311 | 109 ft | 0 kts | 34° |
| 2026-04-27 22:31 | 30.47619 | -87.19309 | 110 ft | 1 kts | 36° |
| 2026-04-27 22:32 | 30.47629 | -87.19294 | 109 ft | 4 kts | 58° |
| 2026-04-27 22:32 | 30.47639 | -87.19255 | 110 ft | 7 kts | 82° |
| 2026-04-27 22:32 | 30.47644 | -87.19192 | 107 ft | 9 kts | 78° |
| 2026-04-27 22:32 | 30.47682 | -87.19135 | 106 ft | 9 kts | 56° |
| 2026-04-27 22:33 | 30.47725 | -87.19084 | 105 ft | 9 kts | 15° |
| 2026-04-27 22:33 | 30.47787 | -87.19091 | 106 ft | 9 kts | 348° |
| 2026-04-27 22:33 | 30.47846 | -87.19104 | 106 ft | 9 kts | 349° |
| 2026-04-27 22:33 | 30.47904 | -87.19120 | 106 ft | 8 kts | 345° |
| 2026-04-27 22:34 | 30.47961 | -87.19136 | 105 ft | 8 kts | 346° |
| 2026-04-27 22:34 | 30.48021 | -87.19153 | 104 ft | 12 kts | 348° |
| 2026-04-27 22:34 | 30.48108 | -87.19175 | 104 ft | 13 kts | 349° |
| 2026-04-27 22:34 | 30.48194 | -87.19197 | 104 ft | 13 kts | 350° |
| 2026-04-27 22:35 | 30.48261 | -87.19144 | 103 ft | 13 kts | 63° |
| 2026-04-27 22:35 | 30.48257 | -87.19050 | 102 ft | 13 kts | 154° |
| 2026-04-27 22:35 | 30.48203 | -87.19043 | 103 ft | 0 kts | 169° |
| 2026-04-27 22:36 | 30.47973 | -87.18983 | 104 ft | 60 kts | 167° |
| 2026-04-27 22:36 | 30.47316 | -87.18809 | 101 ft | 131 kts | 167° |
| 2026-04-27 22:36 | 30.46257 | -87.18527 | 260 ft | 174 kts | 168° |
| 2026-04-27 22:37 | 30.45029 | -87.18298 | 1054 ft | 183 kts | 173° |
| 2026-04-27 22:37 | 30.43817 | -87.17744 | 1836 ft | 193 kts | 147° |
| 2026-04-27 22:37 | 30.42830 | -87.16714 | 2706 ft | 190 kts | 128° |
| 2026-04-27 22:37 | 30.42268 | -87.15291 | 3265 ft | 202 kts | 105° |
| 2026-04-27 22:38 | 30.42198 | -87.13656 | 3646 ft | 216 kts | 81° |
| 2026-04-27 22:38 | 30.42983 | -87.12091 | 3812 ft | 240 kts | 40° |
| 2026-04-27 22:38 | 30.44533 | -87.11272 | 4252 ft | 249 kts | 19° |
| 2026-04-27 22:38 | 30.46204 | -87.10660 | 4794 ft | 253 kts | 19° |
| 2026-04-27 22:39 | 30.47929 | -87.09985 | 5104 ft | 269 kts | 20° |
| 2026-04-27 22:39 | 30.49687 | -87.09218 | 5718 ft | 273 kts | 22° |
| 2026-04-27 22:39 | 30.51400 | -87.08274 | 6513 ft | 273 kts | 28° |
| 2026-04-27 22:39 | 30.53011 | -87.07110 | 7266 ft | 272 kts | 33° |
| 2026-04-27 22:40 | 30.54512 | -87.05775 | 8028 ft | 271 kts | 39° |
| 2026-04-27 22:40 | 30.55902 | -87.04344 | 8809 ft | 269 kts | 41° |
| 2026-04-27 22:40 | 30.57234 | -87.02826 | 9592 ft | 267 kts | 44° |
| 2026-04-27 22:40 | 30.58506 | -87.01274 | 10354 ft | 263 kts | 45° |
| 2026-04-27 22:41 | 30.59728 | -86.99712 | 11081 ft | 258 kts | 45° |
| 2026-04-27 22:41 | 30.60897 | -86.98171 | 11800 ft | 251 kts | 45° |
| 2026-04-27 22:41 | 30.62056 | -86.96614 | 12222 ft | 262 kts | 46° |
| 2026-04-27 22:41 | 30.63263 | -86.94976 | 12477 ft | 277 kts | 47° |
| 2026-04-27 22:42 | 30.64542 | -86.93219 | 12801 ft | 291 kts | 47° |
| 2026-04-27 22:42 | 30.65877 | -86.91372 | 13100 ft | 305 kts | 47° |
| 2026-04-27 22:42 | 30.67270 | -86.89434 | 13413 ft | 319 kts | 47° |
| 2026-04-27 22:42 | 30.68722 | -86.87408 | 13718 ft | 332 kts | 47° |
| 2026-04-27 22:43 | 30.70235 | -86.85291 | 13997 ft | 345 kts | 47° |
| 2026-04-27 22:43 | 30.71777 | -86.83128 | 14267 ft | 358 kts | 47° |
| 2026-04-27 22:43 | 30.73389 | -86.80865 | 14535 ft | 369 kts | 47° |
| 2026-04-27 22:43 | 30.75051 | -86.78529 | 14806 ft | 379 kts | 47° |
| 2026-04-27 22:44 | 30.76756 | -86.76131 | 15087 ft | 389 kts | 47° |
| 2026-04-27 22:44 | 30.78505 | -86.73672 | 15360 ft | 398 kts | 47° |
| 2026-04-27 22:44 | 30.80266 | -86.71194 | 15627 ft | 406 kts | 47° |
| 2026-04-27 22:44 | 30.81963 | -86.68528 | 15886 ft | 416 kts | 56° |
| 2026-04-27 22:45 | 30.83272 | -86.65478 | 16154 ft | 426 kts | 66° |
| 2026-04-27 22:45 | 30.84183 | -86.62152 | 16473 ft | 433 kts | 71° |
| 2026-04-27 22:45 | 30.85012 | -86.58760 | 16767 ft | 437 kts | 71° |
| 2026-04-27 22:45 | 30.85831 | -86.55341 | 17072 ft | 438 kts | 72° |
| 2026-04-27 22:46 | 30.86653 | -86.51914 | 17375 ft | 439 kts | 72° |
| 2026-04-27 22:46 | 30.87475 | -86.48522 | 17674 ft | 440 kts | 71° |
| 2026-04-27 22:46 | 30.88316 | -86.45088 | 17981 ft | 441 kts | 71° |
| 2026-04-27 22:46 | 30.89164 | -86.41649 | 18287 ft | 441 kts | 71° |
| 2026-04-27 22:47 | 30.90017 | -86.38210 | 18574 ft | 442 kts | 71° |
| 2026-04-27 22:47 | 30.90861 | -86.34806 | 18849 ft | 443 kts | 71° |
| 2026-04-27 22:47 | 30.91721 | -86.31344 | 19126 ft | 444 kts | 71° |
| 2026-04-27 22:47 | 30.92582 | -86.27872 | 19403 ft | 447 kts | 71° |
| 2026-04-27 22:48 | 30.93446 | -86.24386 | 19682 ft | 449 kts | 71° |
| 2026-04-27 22:48 | 30.94315 | -86.20871 | 19966 ft | 452 kts | 71° |
| 2026-04-27 22:48 | 30.95187 | -86.17341 | 20232 ft | 454 kts | 71° |
| 2026-04-27 22:48 | 30.96053 | -86.13826 | 20523 ft | 457 kts | 72° |
| 2026-04-27 22:49 | 30.96931 | -86.10259 | 20813 ft | 459 kts | 72° |
| 2026-04-27 22:49 | 30.97813 | -86.06671 | 21111 ft | 461 kts | 72° |
| 2026-04-27 22:49 | 30.98702 | -86.03052 | 21408 ft | 463 kts | 72° |
| 2026-04-27 22:49 | 30.99587 | -85.99439 | 21711 ft | 465 kts | 72° |
| 2026-04-27 22:50 | 31.00477 | -85.95806 | 22013 ft | 466 kts | 72° |
| 2026-04-27 22:50 | 31.01358 | -85.92204 | 22309 ft | 468 kts | 72° |
| 2026-04-27 22:50 | 31.02253 | -85.88536 | 22625 ft | 469 kts | 72° |
| 2026-04-27 22:50 | 31.03147 | -85.84873 | 22926 ft | 470 kts | 72° |
| 2026-04-27 22:51 | 31.04044 | -85.81190 | 23246 ft | 472 kts | 72° |
| 2026-04-27 22:51 | 31.04942 | -85.77494 | 23644 ft | 470 kts | 72° |
| 2026-04-27 22:51 | 31.05821 | -85.73872 | 24095 ft | 467 kts | 71° |
| 2026-04-27 22:51 | 31.06701 | -85.70240 | 24531 ft | 463 kts | 71° |
| 2026-04-27 22:52 | 31.07567 | -85.66662 | 24982 ft | 460 kts | 71° |
| 2026-04-27 22:52 | 31.08434 | -85.63078 | 25441 ft | 458 kts | 71° |
| 2026-04-27 22:52 | 31.09297 | -85.59506 | 25908 ft | 455 kts | 71° |
| 2026-04-27 22:52 | 31.10154 | -85.55955 | 26383 ft | 452 kts | 71° |
| 2026-04-27 22:53 | 31.11002 | -85.52434 | 26890 ft | 449 kts | 71° |
| 2026-04-27 22:53 | 31.11845 | -85.48930 | 27397 ft | 446 kts | 71° |
| 2026-04-27 22:53 | 31.12669 | -85.45502 | 27892 ft | 442 kts | 71° |
| 2026-04-27 22:53 | 31.13498 | -85.42050 | 28418 ft | 439 kts | 71° |
| 2026-04-27 22:54 | 31.14316 | -85.38634 | 28997 ft | 433 kts | 70° |
| 2026-04-27 22:54 | 31.15115 | -85.35289 | 29813 ft | 422 kts | 70° |
| 2026-04-27 22:54 | 31.15894 | -85.32021 | 30538 ft | 411 kts | 70° |
| 2026-04-27 22:54 | 31.16650 | -85.28847 | 31124 ft | 403 kts | 70° |
| 2026-04-27 22:55 | 31.17405 | -85.25694 | 31218 ft | 409 kts | 69° |
| 2026-04-27 22:55 | 31.18175 | -85.22478 | 31428 ft | 411 kts | 69° |
| 2026-04-27 22:55 | 31.18949 | -85.19239 | 31608 ft | 414 kts | 69° |
| 2026-04-27 22:55 | 31.19725 | -85.15985 | 31785 ft | 417 kts | 69° |
| 2026-04-27 22:56 | 31.20505 | -85.12705 | 31968 ft | 420 kts | 69° |
| 2026-04-27 22:56 | 31.21288 | -85.09402 | 32117 ft | 423 kts | 69° |
| 2026-04-27 22:56 | 31.22071 | -85.06105 | 32138 ft | 430 kts | 69° |
| 2026-04-27 22:57 | 31.23697 | -84.99236 | 32145 ft | 445 kts | 70° |
| 2026-04-27 22:57 | 31.25371 | -84.92135 | 32151 ft | 459 kts | 70° |
| 2026-04-27 22:58 | 31.27075 | -84.84882 | 32150 ft | 472 kts | 70° |
| 2026-04-27 22:58 | 31.28531 | -84.78664 | 32145 ft | 481 kts | 70° |
| 2026-04-27 22:59 | 31.30301 | -84.71084 | 32134 ft | 484 kts | 70° |
| 2026-04-27 22:59 | 31.32070 | -84.63490 | 32127 ft | 481 kts | 71° |
| 2026-04-27 23:00 | 31.34570 | -84.52282 | 32139 ft | 475 kts | 71° |
| 2026-04-27 23:00 | 31.36202 | -84.44759 | 32154 ft | 476 kts | 71° |
| 2026-04-27 23:01 | 31.37837 | -84.37229 | 32131 ft | 477 kts | 71° |
| 2026-04-27 23:01 | 31.39468 | -84.29719 | 32149 ft | 478 kts | 71° |
| 2026-04-27 23:02 | 31.41110 | -84.22152 | 32161 ft | 479 kts | 72° |
| 2026-04-27 23:02 | 31.42735 | -84.14636 | 32145 ft | 478 kts | 72° |
| 2026-04-27 23:03 | 31.44365 | -84.07071 | 32151 ft | 477 kts | 72° |
| 2026-04-27 23:03 | 31.45975 | -83.99577 | 32153 ft | 476 kts | 72° |
| 2026-04-27 23:04 | 31.47586 | -83.92057 | 32152 ft | 475 kts | 72° |
| 2026-04-27 23:04 | 31.49190 | -83.84547 | 32162 ft | 474 kts | 72° |
| 2026-04-27 23:05 | 31.50784 | -83.77056 | 32155 ft | 473 kts | 72° |
| 2026-04-27 23:05 | 31.52374 | -83.69566 | 32164 ft | 473 kts | 72° |
| 2026-04-27 23:06 | 31.53947 | -83.62134 | 32168 ft | 472 kts | 72° |
| 2026-04-27 23:06 | 31.55526 | -83.54650 | 32163 ft | 472 kts | 72° |
| 2026-04-27 23:07 | 31.57097 | -83.47178 | 32164 ft | 472 kts | 72° |
| 2026-04-27 23:07 | 31.58659 | -83.39727 | 32169 ft | 472 kts | 72° |
| 2026-04-27 23:08 | 31.60224 | -83.32242 | 32169 ft | 472 kts | 72° |
| 2026-04-27 23:08 | 31.61787 | -83.24739 | 32168 ft | 473 kts | 72° |
| 2026-04-27 23:09 | 31.63346 | -83.17230 | 32179 ft | 473 kts | 72° |
| 2026-04-27 23:09 | 31.64896 | -83.09744 | 32176 ft | 474 kts | 72° |
| 2026-04-27 23:10 | 31.66450 | -83.02216 | 32171 ft | 474 kts | 72° |
| 2026-04-27 23:10 | 31.68000 | -82.94680 | 32175 ft | 474 kts | 72° |
| 2026-04-27 23:11 | 31.69533 | -82.87202 | 32173 ft | 474 kts | 73° |
| 2026-04-27 23:11 | 31.71075 | -82.79658 | 32174 ft | 474 kts | 73° |
| 2026-04-27 23:12 | 31.72603 | -82.72158 | 32174 ft | 474 kts | 73° |
| 2026-04-27 23:12 | 31.74147 | -82.64564 | 32186 ft | 483 kts | 73° |
| 2026-04-27 23:13 | 31.75715 | -82.56831 | 32184 ft | 492 kts | 73° |
| 2026-04-27 23:13 | 31.77305 | -82.48947 | 32191 ft | 498 kts | 73° |
| 2026-04-27 23:14 | 31.78906 | -82.40976 | 32184 ft | 502 kts | 73° |
| 2026-04-27 23:14 | 31.80489 | -82.33057 | 32182 ft | 491 kts | 73° |
| 2026-04-27 23:15 | 31.81257 | -82.29202 | 32164 ft | 476 kts | 73° |
| 2026-04-27 23:15 | 31.81988 | -82.25523 | 32174 ft | 459 kts | 73° |
| 2026-04-27 23:15 | 31.83421 | -82.18330 | 32191 ft | 446 kts | 73° |
| 2026-04-27 23:16 | 31.84833 | -82.11242 | 32198 ft | 445 kts | 73° |
| 2026-04-27 23:16 | 31.86231 | -82.04182 | 32202 ft | 446 kts | 73° |
| 2026-04-27 23:17 | 31.88101 | -81.97254 | 32209 ft | 442 kts | 64° |
| 2026-04-27 23:17 | 31.90463 | -81.90604 | 32200 ft | 442 kts | 64° |
| 2026-04-27 23:18 | 31.92844 | -81.83901 | 32219 ft | 442 kts | 64° |
| 2026-04-27 23:18 | 31.95156 | -81.77232 | 32226 ft | 442 kts | 64° |
| 2026-04-27 23:19 | 31.96310 | -81.73871 | 32092 ft | 445 kts | 64° |
| 2026-04-27 23:19 | 31.97474 | -81.70470 | 31596 ft | 449 kts | 64° |
| 2026-04-27 23:19 | 31.98641 | -81.67052 | 31117 ft | 448 kts | 64° |
| 2026-04-27 23:19 | 31.99799 | -81.63654 | 30625 ft | 445 kts | 64° |
| 2026-04-27 23:20 | 32.00957 | -81.60261 | 29554 ft | 455 kts | 64° |
| 2026-04-27 23:20 | 32.02149 | -81.56769 | 28521 ft | 462 kts | 64° |
| 2026-04-27 23:20 | 32.03360 | -81.53215 | 27498 ft | 469 kts | 64° |
| 2026-04-27 23:20 | 32.04582 | -81.49622 | 26520 ft | 475 kts | 64° |
| 2026-04-27 23:21 | 32.05818 | -81.45981 | 25561 ft | 479 kts | 64° |
| 2026-04-27 23:21 | 32.07044 | -81.42364 | 24640 ft | 483 kts | 64° |
| 2026-04-27 23:21 | 32.08297 | -81.38665 | 23707 ft | 487 kts | 64° |
| 2026-04-27 23:21 | 32.09559 | -81.34934 | 22823 ft | 486 kts | 65° |
| 2026-04-27 23:22 | 32.10784 | -81.31299 | 22716 ft | 467 kts | 65° |
| 2026-04-27 23:22 | 32.11978 | -81.27757 | 21788 ft | 468 kts | 65° |
| 2026-04-27 23:22 | 32.13190 | -81.24175 | 20825 ft | 467 kts | 65° |
| 2026-04-27 23:22 | 32.14375 | -81.20687 | 20336 ft | 455 kts | 64° |
| 2026-04-27 23:23 | 32.15867 | -81.17531 | 20143 ft | 428 kts | 51° |
| 2026-04-27 23:23 | 32.17639 | -81.14768 | 19855 ft | 411 kts | 49° |
| 2026-04-27 23:23 | 32.19348 | -81.12151 | 19763 ft | 394 kts | 49° |
| 2026-04-27 23:23 | 32.21000 | -81.09630 | 19687 ft | 381 kts | 49° |
| 2026-04-27 23:24 | 32.22580 | -81.07203 | 19190 ft | 379 kts | 49° |
| 2026-04-27 23:24 | 32.24216 | -81.04669 | 18216 ft | 394 kts | 50° |
| 2026-04-27 23:24 | 32.25892 | -81.02049 | 17270 ft | 403 kts | 50° |
| 2026-04-27 23:24 | 32.27560 | -80.99411 | 17092 ft | 391 kts | 51° |
| 2026-04-27 23:25 | 32.29155 | -80.96875 | 16998 ft | 378 kts | 51° |
| 2026-04-27 23:25 | 32.30710 | -80.94400 | 16181 ft | 384 kts | 51° |
| 2026-04-27 23:25 | 32.32328 | -80.91827 | 15446 ft | 390 kts | 51° |
| 2026-04-27 23:25 | 32.33957 | -80.89231 | 14666 ft | 396 kts | 52° |
| 2026-04-27 23:26 | 32.35610 | -80.86596 | 13897 ft | 400 kts | 52° |
| 2026-04-27 23:26 | 32.37281 | -80.83929 | 13056 ft | 404 kts | 52° |
| 2026-04-27 23:26 | 32.38963 | -80.81243 | 12235 ft | 407 kts | 53° |
| 2026-04-27 23:26 | 32.40616 | -80.78599 | 11749 ft | 401 kts | 53° |
| 2026-04-27 23:27 | 32.42240 | -80.76001 | 11668 ft | 384 kts | 53° |
| 2026-04-27 23:27 | 32.43800 | -80.73503 | 11562 ft | 369 kts | 53° |
| 2026-04-27 23:27 | 32.45309 | -80.71086 | 11147 ft | 363 kts | 53° |
| 2026-04-27 23:27 | 32.46795 | -80.68615 | 10277 ft | 373 kts | 58° |
| 2026-04-27 23:28 | 32.47964 | -80.65864 | 9189 ft | 384 kts | 66° |
| 2026-04-27 23:28 | 32.49292 | -80.63133 | 8792 ft | 377 kts | 50° |
| 2026-04-27 23:28 | 32.51042 | -80.60919 | 8712 ft | 360 kts | 48° |
| 2026-04-27 23:28 | 32.52666 | -80.58733 | 8605 ft | 345 kts | 50° |
| 2026-04-27 23:29 | 32.54211 | -80.56552 | 8033 ft | 346 kts | 51° |
| 2026-04-27 23:29 | 32.55693 | -80.54337 | 7504 ft | 347 kts | 52° |
| 2026-04-27 23:29 | 32.57151 | -80.52061 | 6964 ft | 347 kts | 53° |
| 2026-04-27 23:29 | 32.58561 | -80.49761 | 6483 ft | 339 kts | 54° |
| 2026-04-27 23:30 | 32.59937 | -80.47552 | 5929 ft | 326 kts | 54° |
| 2026-04-27 23:30 | 32.61264 | -80.45428 | 5438 ft | 312 kts | 54° |
| 2026-04-27 23:30 | 32.62541 | -80.43456 | 5284 ft | 290 kts | 53° |
| 2026-04-27 23:30 | 32.63756 | -80.41648 | 5232 ft | 270 kts | 53° |
| 2026-04-27 23:31 | 32.64914 | -80.39922 | 5233 ft | 266 kts | 53° |
| 2026-04-27 23:31 | 32.66051 | -80.38218 | 5243 ft | 266 kts | 53° |
| 2026-04-27 23:31 | 32.67205 | -80.36483 | 5243 ft | 267 kts | 53° |
| 2026-04-27 23:31 | 32.68356 | -80.34737 | 5072 ft | 269 kts | 56° |
| 2026-04-27 23:32 | 32.69210 | -80.32794 | 4838 ft | 261 kts | 70° |
| 2026-04-27 23:32 | 32.69814 | -80.30794 | 4608 ft | 253 kts | 72° |
| 2026-04-27 23:32 | 32.70359 | -80.28868 | 4342 ft | 246 kts | 72° |
| 2026-04-27 23:32 | 32.70906 | -80.26951 | 3982 ft | 243 kts | 72° |
| 2026-04-27 23:33 | 32.71455 | -80.25055 | 3638 ft | 242 kts | 72° |
| 2026-04-27 23:33 | 32.72008 | -80.23169 | 3315 ft | 239 kts | 72° |
| 2026-04-27 23:33 | 32.72565 | -80.21287 | 3278 ft | 245 kts | 72° |
| 2026-04-27 23:33 | 32.73128 | -80.19398 | 3259 ft | 244 kts | 72° |
| 2026-04-27 23:34 | 32.73700 | -80.17485 | 3219 ft | 241 kts | 71° |
| 2026-04-27 23:34 | 32.74254 | -80.15640 | 3247 ft | 240 kts | 71° |
| 2026-04-27 23:34 | 32.74818 | -80.13762 | 3261 ft | 242 kts | 72° |
| 2026-04-27 23:34 | 32.75388 | -80.11866 | 3254 ft | 243 kts | 72° |
| 2026-04-27 23:35 | 32.75953 | -80.09983 | 3243 ft | 241 kts | 71° |
| 2026-04-27 23:35 | 32.76520 | -80.08099 | 3258 ft | 240 kts | 71° |
| 2026-04-27 23:35 | 32.77073 | -80.06255 | 3261 ft | 239 kts | 70° |
| 2026-04-27 23:35 | 32.77646 | -80.04398 | 3254 ft | 238 kts | 69° |
| 2026-04-27 23:36 | 32.78236 | -80.02560 | 3262 ft | 237 kts | 69° |
| 2026-04-27 23:36 | 32.78826 | -80.00729 | 3244 ft | 237 kts | 69° |
| 2026-04-27 23:36 | 32.79416 | -79.98896 | 3170 ft | 237 kts | 70° |
| 2026-04-27 23:36 | 32.79988 | -79.97086 | 3107 ft | 236 kts | 70° |
| 2026-04-27 23:37 | 32.80563 | -79.95252 | 3039 ft | 236 kts | 70° |
| 2026-04-27 23:37 | 32.81144 | -79.93427 | 2970 ft | 236 kts | 66° |
| 2026-04-27 23:37 | 32.82196 | -79.91959 | 2832 ft | 239 kts | 30° |
| 2026-04-27 23:37 | 32.83791 | -79.91507 | 2712 ft | 237 kts | 360° |
| 2026-04-27 23:38 | 32.85400 | -79.91981 | 2575 ft | 243 kts | 333° |
| 2026-04-27 23:38 | 32.86663 | -79.93282 | 2446 ft | 248 kts | 305° |
| 2026-04-27 23:38 | 32.87249 | -79.95204 | 2308 ft | 249 kts | 276° |
| 2026-04-27 23:38 | 32.87559 | -79.97221 | 2186 ft | 248 kts | 294° |
| 2026-04-27 23:39 | 32.88453 | -79.98970 | 2211 ft | 246 kts | 307° |
| 2026-04-27 23:39 | 32.89173 | -80.00802 | 2356 ft | 249 kts | 279° |
| 2026-04-27 23:39 | 32.88958 | -80.02838 | 2035 ft | 254 kts | 244° |
| 2026-04-27 23:39 | 32.87844 | -80.04349 | 1734 ft | 242 kts | 211° |
| 2026-04-27 23:40 | 32.86295 | -80.05036 | 1761 ft | 235 kts | 184° |
| 2026-04-27 23:40 | 32.84706 | -80.04882 | 2188 ft | 230 kts | 159° |
| 2026-04-27 23:40 | 32.83338 | -80.03967 | 2566 ft | 234 kts | 142° |
| 2026-04-27 23:40 | 32.81980 | -80.02580 | 2168 ft | 267 kts | 135° |
| 2026-04-27 23:41 | 32.80625 | -80.01094 | 2386 ft | 265 kts | 138° |
| 2026-04-27 23:41 | 32.79385 | -79.99526 | 2126 ft | 244 kts | 115° |
| 2026-04-27 23:41 | 32.79268 | -79.97678 | 1943 ft | 217 kts | 73° |
| 2026-04-27 23:41 | 32.80198 | -79.96382 | 1667 ft | 208 kts | 25° |
| 2026-04-27 23:42 | 32.81583 | -79.96168 | 1433 ft | 202 kts | 352° |
| 2026-04-27 23:42 | 32.82866 | -79.96828 | 1141 ft | 201 kts | 333° |
| 2026-04-27 23:42 | 32.83980 | -79.97779 | 1049 ft | 189 kts | 328° |
| 2026-04-27 23:42 | 32.84925 | -79.98864 | 802 ft | 187 kts | 312° |
| 2026-04-27 23:43 | 32.85767 | -79.99993 | 671 ft | 180 kts | 316° |
| 2026-04-27 23:43 | 32.86739 | -80.01016 | 587 ft | 202 kts | 321° |
| 2026-04-27 23:43 | 32.87801 | -80.02044 | 402 ft | 200 kts | 325° |
| 2026-04-27 23:43 | 32.88899 | -80.02972 | 189 ft | 185 kts | 327° |
| 2026-04-27 23:44 | 32.89939 | -80.03769 | 52 ft | 168 kts | 327° |
| 2026-04-27 23:44 | 32.90827 | -80.04445 | 57 ft | 117 kts | 324° |
| 2026-04-27 23:44 | 32.91093 | -80.04649 | 63 ft | 13 kts | 327° |
| 2026-04-27 23:44 | 32.91165 | -80.04710 | 64 ft | 13 kts | 324° |
| 2026-04-27 23:45 | 32.91238 | -80.04763 | 61 ft | 12 kts | 329° |
| 2026-04-27 23:45 | 32.74054 | -80.16372 | 3078 ft | 229 kts | 71° |
| 2026-04-27 23:45 | 32.74558 | -80.14548 | 2250 ft | 239 kts | 78° |